Aérodrome :
LOGIN :

S'inscrire | Disclaimer

   EN    FR    IT 

 










Légende :    VFR   VFR Marginal   IFR   IFR Intensif   IFR Très Intensif
Visi : 
Plafond : 
>= 8 km
>= 3000ft
5 à 8 km
1000 à 3000 ft
1500m à 5 km
500 à 1000 ft
800 à 1500m
200 à 500 ft
< 800m
< 200 ft
Symboles :   Orages  Brouillard  Fortes neiges  Fortes précipitations  Vent > 20 kt
SIGMETs :   Divers  Orages  Givrage  Turbulence  Onde Orograph.  Cendres Volcan.






- Altitude de l'aérodrome : 1197 ft
- Code IATA : SPM


ETAD - Spangdahlem Ab

DERNIER METAR :
  • 240456Z AUTO 21007KT 9999 OVC007 11/11 A2997 RMK AO2 SLP139 T01110111 $

METARs EXPIRÉS :
  • 240441Z AUTO 21004KT 9999 BKN008 OVC032 11/11 A2997 RMK AO2 SLP139 $
  • 240411Z AUTO 21004KT 9999 OVC007 11/11 A2997 RMK AO2 CIG 007V009 SLP139 $
  • 240356Z AUTO 21008KT 9999 OVC009 11/11 A2997 RMK AO2 SLP139 T01110111 $
  • 240326Z AUTO 20006KT 9999 SCT013 SCT018 BKN070 11/11 A2996 RMK AO2 SLP136 $
  • 240311Z AUTO 20006KT 9999 BKN010 BKN017 11/11 A2996 RMK AO2 BKN010 V OVC SLP136 $
  • 240256Z AUTO 19007KT 9999 BKN009 OVC032 11/11 A2997 RMK AO2 CIG 009V011 SLP139 T01120112 50002 $

TAF TAF ETAD
Valide du 23 à 20h jusqu'au 25 à 02h UTC


232000Z 2320/2502 22004KT 9999 FEW007 QNH2994INS
BECMG 2401/2402 20007KT 6000 BR SCT005 OVC007 QNH2996INS
TEMPO 2403/2410 0800 FG OVC002
BECMG 2411/2412 21012KT 8000 -SHRA BKN015 QNH2990INS
BECMG 2422/2423 22009KT 9999 NSW BKN018 QNH2986INS TX13/2414Z TN10/2406Z LAST NO AMDS AFT 2320 NEXT 2404



MET'MAP, la Météo Aéronautique d'un coup d'oeil ! - Copyright ORBIFLY Décembre 2007 - Disclaimer

ORBIFLY MET'MAP TEAM :

Programmation & Développement : Alexandra Zaïnal
Sur une idée originale de : Baudouin d'Aumeries
Assistance à la programmation : Marc-Olivier Méhu
Soutien technique & logistique : Manuel Goepfert

Contact : metmap@orbifly.com




SOURCES & CREDITS :

   NOAA